createdAt,value
2019-04-03T03:50:13.591Z,53.00
2019-04-03T03:52:41.807Z,53.60
2019-04-03T03:55:22.913Z,53.30
2019-04-03T03:57:55.373Z,53.00
2019-04-03T04:00:24.852Z,52.30
2019-04-03T04:02:53.096Z,52.00
2019-04-03T04:05:22.830Z,51.50
2019-04-03T04:07:52.526Z,51.50
2019-04-03T04:10:25.211Z,51.50
2019-04-03T04:12:51.051Z,51.10
2019-04-03T04:15:21.707Z,50.20
2019-04-03T04:17:51.763Z,50.40
2019-04-03T04:20:20.933Z,50.90
2019-04-03T04:22:50.837Z,51.40
2019-04-03T04:25:18.782Z,50.60
2019-04-03T04:27:46.725Z,49.80
2019-04-03T04:30:15.703Z,48.90
2019-04-03T04:32:46.228Z,49.00
2019-04-03T04:35:15.735Z,49.30
2019-04-03T04:37:43.626Z,49.00
2019-04-03T04:40:13.231Z,49.30
2019-04-03T04:42:43.205Z,49.80
2019-04-03T04:45:12.475Z,48.70
2019-04-03T04:47:40.380Z,49.00
2019-04-03T04:50:08.306Z,49.70
2019-04-03T04:52:37.289Z,50.40
2019-04-03T04:55:07.205Z,49.70
2019-04-03T04:57:35.209Z,50.20
2019-04-03T05:00:10.977Z,49.50
2019-04-03T05:02:39.793Z,49.20
2019-04-03T05:05:09.077Z,49.90
2019-04-03T05:07:37.136Z,50.10
2019-04-03T05:10:05.833Z,50.00
2019-04-03T05:12:34.421Z,49.70
2019-04-03T05:15:02.320Z,49.00
2019-04-03T05:17:30.362Z,48.70
2019-04-03T05:19:58.272Z,49.60
2019-04-03T05:22:26.302Z,49.40
2019-04-03T05:24:54.232Z,50.50
2019-04-03T05:27:38.206Z,51.70
2019-04-03T05:30:06.558Z,51.90
2019-04-03T05:32:35.507Z,52.70
2019-04-03T05:35:04.167Z,53.40
2019-04-03T05:37:32.526Z,53.80
2019-04-03T05:40:01.284Z,54.20
2019-04-03T05:42:31.068Z,54.60
2019-04-03T05:44:59.142Z,54.20
2019-04-03T05:50:28.476Z,52.90
2019-04-03T05:52:56.360Z,52.20
2019-04-03T05:55:25.393Z,51.10
2019-04-03T05:57:53.414Z,51.90
2019-04-03T06:00:21.558Z,50.80
2019-04-03T06:02:49.553Z,50.30
2019-04-03T06:05:20.083Z,49.90
2019-04-03T06:07:49.822Z,50.80
2019-04-03T06:10:19.658Z,51.00
2019-04-03T06:12:49.559Z,51.70
2019-04-03T06:15:17.492Z,51.70
2019-04-03T06:17:45.375Z,52.20
2019-04-03T06:20:13.267Z,52.40
2019-04-03T06:22:42.148Z,51.90
2019-04-03T06:25:13.447Z,51.00
2019-04-03T06:27:42.187Z,50.30
2019-04-03T06:30:10.150Z,49.90
2019-04-03T06:32:38.056Z,49.70
2019-04-03T06:35:07.940Z,49.30
2019-04-03T06:37:35.894Z,49.20
2019-04-03T06:40:06.664Z,50.30
2019-04-03T06:42:34.591Z,49.40
2019-04-03T06:45:06.073Z,49.70
2019-04-03T06:47:33.953Z,50.90
2019-04-03T06:50:02.203Z,50.10
2019-04-03T06:52:30.118Z,49.60
2019-04-03T06:54:58.960Z,49.60
2019-04-03T06:57:26.843Z,51.10
2019-04-03T06:59:54.728Z,51.00
2019-04-03T07:02:27.774Z,51.40
2019-04-03T07:04:56.710Z,51.80
2019-04-03T07:07:33.524Z,50.90
2019-04-03T07:09:54.260Z,50.90
2019-04-03T07:12:22.202Z,50.60
2019-04-03T07:14:50.158Z,49.90
2019-04-03T07:17:20.058Z,50.60
2019-04-03T07:19:48.888Z,51.20
2019-04-03T07:22:16.794Z,50.00
2019-04-03T07:24:44.895Z,49.80
2019-04-03T07:27:14.611Z,49.60
2019-04-03T07:29:42.415Z,49.10
2019-04-03T07:32:13.968Z,49.50
2019-04-03T07:34:42.867Z,50.50
2019-04-03T07:37:15.025Z,51.40
2019-04-03T07:39:41.663Z,51.70
2019-04-03T07:42:09.617Z,51.50
2019-04-03T07:44:37.511Z,51.00
2019-04-03T07:47:06.505Z,50.30
2019-04-03T07:49:35.372Z,50.20
2019-04-03T07:52:03.427Z,50.30
2019-04-03T07:54:31.389Z,51.20
2019-04-03T07:56:59.288Z,51.80
2019-04-03T07:59:27.173Z,51.90
2019-04-03T08:01:56.180Z,50.90
2019-04-03T08:04:25.412Z,51.00
2019-04-03T08:06:54.640Z,50.50
2019-04-03T08:09:22.575Z,50.60
2019-04-03T08:11:50.500Z,49.30
2019-04-03T08:14:20.394Z,48.10
2019-04-03T08:16:49.276Z,49.50
2019-04-03T08:19:22.786Z,49.20
2019-04-03T08:21:50.475Z,48.70
2019-04-03T08:24:18.631Z,48.30
2019-04-03T08:26:46.524Z,49.00
2019-04-03T08:29:14.452Z,49.50
2019-04-03T08:31:44.209Z,50.10
2019-04-03T08:34:16.789Z,49.60
2019-04-03T08:36:42.663Z,49.80
2019-04-03T08:39:11.599Z,51.00
2019-04-03T08:41:39.517Z,51.10
2019-04-03T08:44:09.353Z,50.70
2019-04-03T08:46:42.275Z,50.10
2019-04-03T08:49:09.759Z,49.10
2019-04-03T08:51:37.893Z,49.00
2019-04-03T08:54:05.875Z,49.30
2019-04-03T08:56:34.723Z,48.30
2019-04-03T08:59:02.621Z,48.00
2019-04-03T09:01:30.509Z,47.80
2019-04-03T09:03:59.339Z,47.80
2019-04-03T09:06:27.220Z,47.10
2019-04-03T09:08:58.207Z,47.40
2019-04-03T09:11:25.710Z,47.40
2019-04-03T09:13:55.934Z,48.60
2019-04-03T09:16:25.199Z,48.20
2019-04-03T09:18:53.107Z,48.90
2019-04-03T09:21:21.055Z,47.40
2019-04-03T09:23:48.947Z,46.70
2019-04-03T09:26:16.880Z,46.60
2019-04-03T09:28:45.975Z,46.50
2019-04-03T09:31:14.898Z,46.80
2019-04-03T09:33:45.041Z,46.10
2019-04-03T09:36:12.947Z,45.70
2019-04-03T09:38:41.881Z,46.20
2019-04-03T09:41:09.903Z,46.20
2019-04-03T09:43:41.527Z,45.70
2019-04-03T09:46:11.378Z,44.70
2019-04-03T09:48:39.287Z,44.50
2019-04-03T09:51:10.651Z,45.90
2019-04-03T09:53:50.755Z,46.50
2019-04-03T09:56:19.755Z,46.20
2019-04-03T09:58:48.645Z,45.90
2019-04-03T10:01:18.528Z,45.00
2019-04-03T10:03:47.784Z,44.00
2019-04-03T10:06:15.670Z,42.70
2019-04-03T10:08:44.547Z,42.10
2019-04-03T10:11:15.494Z,43.20
2019-04-03T10:13:45.349Z,42.80
2019-04-03T10:16:16.371Z,43.20
2019-04-03T10:18:44.792Z,42.40
2019-04-03T10:21:12.671Z,41.70
2019-04-03T10:23:40.592Z,41.50
2019-04-03T10:26:09.662Z,40.70
2019-04-03T10:28:42.103Z,41.30
2019-04-03T10:31:10.478Z,42.00
2019-04-03T10:33:40.756Z,42.00
2019-04-03T10:36:10.881Z,40.90
2019-04-03T10:38:38.523Z,41.50
2019-04-03T10:41:06.728Z,40.60
2019-04-03T10:43:36.212Z,40.70
2019-04-03T10:46:05.213Z,41.00
2019-04-03T10:48:33.185Z,41.40
2019-04-03T10:51:01.159Z,41.80
2019-04-03T10:53:29.062Z,42.30
2019-04-03T10:55:59.334Z,41.20
2019-04-03T10:58:26.938Z,41.30
2019-04-03T11:00:58.721Z,40.80
2019-04-03T11:03:26.843Z,40.40
2019-04-03T11:05:54.965Z,40.10
2019-04-03T11:08:23.903Z,40.20
2019-04-03T11:10:51.812Z,40.50
2019-04-03T11:13:20.686Z,40.40
2019-04-03T11:15:48.571Z,40.20
2019-04-03T11:18:23.878Z,40.20
2019-04-03T11:20:52.116Z,40.50
2019-04-03T11:23:30.317Z,40.30
2019-04-03T11:25:50.572Z,40.20
2019-04-03T11:28:20.727Z,39.70
2019-04-03T11:30:52.128Z,40.30
2019-04-03T11:33:19.176Z,40.00
2019-04-03T11:35:48.064Z,39.30
2019-04-03T11:38:27.151Z,40.20
2019-04-03T11:40:50.826Z,40.10
2019-04-03T11:43:19.748Z,39.90
2019-04-03T11:45:49.637Z,39.20
2019-04-03T11:48:19.470Z,39.50
2019-04-03T11:50:48.269Z,40.60
2019-04-03T11:53:16.157Z,39.60
2019-04-03T11:55:44.286Z,40.40
2019-04-03T11:58:12.569Z,40.50
2019-04-03T12:00:42.204Z,40.70
2019-04-03T12:03:11.449Z,41.30
2019-04-03T12:05:39.663Z,40.50
2019-04-03T12:08:07.550Z,40.70
2019-04-03T12:10:35.668Z,40.80
2019-04-03T12:13:04.727Z,39.10
2019-04-03T12:15:34.612Z,39.60
2019-04-03T12:18:02.939Z,39.50
2019-04-03T12:20:31.922Z,38.80
2019-04-03T12:22:59.796Z,39.50
2019-04-03T12:25:27.690Z,40.10
2019-04-03T12:27:55.735Z,40.10
2019-04-03T12:30:26.415Z,39.30
2019-04-03T12:32:54.147Z,38.90
2019-04-03T12:35:23.108Z,39.10
2019-04-03T12:37:51.273Z,38.30
2019-04-03T12:40:20.546Z,38.30
2019-04-03T12:42:48.453Z,38.30
2019-04-03T12:45:18.637Z,37.90
2019-04-03T12:47:47.760Z,38.70
2019-04-03T12:50:15.740Z,38.90
2019-04-03T12:52:44.892Z,38.40
2019-04-03T12:55:13.018Z,38.60
2019-04-03T12:57:41.858Z,38.80
2019-04-03T13:00:12.693Z,38.30
2019-04-03T13:02:41.318Z,38.80
2019-04-03T13:05:09.292Z,38.40
2019-04-03T13:07:37.566Z,38.70
2019-04-03T13:10:06.987Z,39.60
2019-04-03T13:12:35.836Z,38.90
2019-04-03T13:15:06.575Z,37.40
2019-04-03T13:17:34.806Z,38.60
2019-04-03T13:20:05.605Z,38.80
2019-04-03T13:22:33.236Z,39.20
2019-04-03T13:25:01.124Z,38.00
2019-04-03T13:27:31.706Z,38.20
2019-04-03T13:29:59.609Z,38.30
2019-04-03T13:32:28.535Z,38.60
2019-04-03T13:34:57.466Z,38.20
2019-04-03T13:37:25.578Z,38.00
2019-04-03T13:39:53.541Z,36.90
2019-04-03T13:42:22.410Z,37.80
2019-04-03T13:44:50.687Z,37.40
2019-04-03T13:47:18.662Z,36.60
2019-04-03T13:49:49.340Z,36.50
2019-04-03T13:52:16.231Z,36.20
2019-04-03T13:54:45.407Z,36.10
2019-04-03T13:57:15.459Z,35.90
2019-04-03T13:59:44.031Z,36.20
2019-04-03T14:02:13.999Z,34.90
2019-04-03T14:04:42.507Z,36.10
2019-04-03T14:07:10.435Z,35.70
2019-04-03T14:09:39.689Z,34.80
2019-04-03T14:12:08.831Z,34.10
2019-04-03T14:14:36.784Z,35.60
2019-04-03T14:17:06.099Z,36.00
2019-04-03T14:19:43.163Z,35.60
2019-04-03T14:22:06.780Z,35.40
2019-04-03T14:24:41.311Z,35.10
2019-04-03T14:27:16.448Z,33.30
2019-04-03T14:29:53.759Z,34.90
2019-04-03T14:32:22.451Z,33.40
2019-04-03T14:34:51.425Z,33.90
2019-04-03T14:37:25.945Z,33.60
2019-04-03T14:39:58.951Z,33.60
2019-04-03T14:42:28.881Z,33.70
2019-04-03T14:44:56.857Z,33.20
2019-04-03T14:47:27.892Z,33.40
2019-04-03T14:50:05.370Z,33.10
2019-04-03T14:52:36.346Z,33.60
2019-04-03T14:55:16.422Z,32.70
2019-04-03T14:57:36.259Z,33.40
2019-04-03T15:00:22.960Z,31.90
2019-04-03T15:02:45.408Z,33.00
2019-04-03T15:05:13.419Z,32.70
2019-04-03T15:07:41.314Z,32.80
2019-04-03T15:10:11.114Z,33.10
2019-04-03T15:12:52.215Z,38.50
2019-04-03T15:15:21.708Z,44.40
2019-04-03T15:17:51.034Z,46.90
2019-04-03T15:20:19.809Z,49.00
2019-04-03T15:22:47.795Z,49.80
2019-04-03T15:25:16.179Z,51.40
2019-04-03T15:27:46.268Z,52.10
2019-04-03T15:30:27.228Z,53.70
2019-04-03T15:33:31.357Z,55.50
2019-04-03T15:36:03.459Z,56.10
2019-04-03T15:38:30.891Z,57.80
2019-04-03T15:40:59.449Z,58.70
2019-04-03T15:43:28.669Z,59.30
2019-04-03T15:46:01.669Z,59.70
2019-04-03T15:48:30.668Z,59.20
2019-04-03T15:51:00.563Z,58.10
2019-04-03T15:53:29.452Z,57.90
2019-04-03T15:56:17.001Z,57.50
2019-04-03T15:58:58.286Z,57.60
2019-04-03T16:01:25.606Z,57.30
2019-04-03T16:03:58.893Z,57.20
2019-04-03T16:06:36.019Z,57.20
2019-04-03T16:09:13.353Z,57.70
2019-04-03T16:11:41.614Z,57.40
2019-04-03T16:14:13.775Z,57.50
2019-04-03T16:16:49.184Z,56.60
2019-04-03T16:19:17.459Z,56.60
2019-04-03T16:21:56.218Z,56.70
2019-04-03T16:24:29.161Z,56.60
2019-04-03T16:26:59.393Z,56.90
2019-04-03T16:29:36.168Z,56.80
2019-04-03T16:32:13.700Z,56.50
2019-04-03T16:35:00.223Z,56.90
2019-04-03T16:37:29.287Z,57.20
2019-04-03T16:39:58.131Z,56.80
2019-04-03T16:42:49.473Z,55.40
2019-04-03T16:45:18.455Z,55.30
2019-04-03T16:47:47.876Z,55.00
2019-04-03T16:50:17.029Z,54.20
2019-04-03T16:52:47.386Z,54.10
2019-04-03T16:55:26.273Z,53.70
2019-04-03T16:57:55.311Z,54.30
2019-04-03T17:00:24.497Z,54.50
2019-04-03T17:02:53.988Z,54.00
2019-04-03T17:05:30.413Z,53.70
2019-04-03T17:08:25.964Z,54.20
2019-04-03T17:10:35.457Z,54.60
2019-04-03T17:13:03.547Z,53.90
2019-04-03T17:15:35.133Z,54.00
2019-04-03T17:18:02.117Z,54.20
2019-04-03T17:20:30.130Z,53.80
2019-04-03T17:23:05.481Z,54.20
2019-04-03T17:25:45.863Z,54.60
2019-04-03T17:28:15.741Z,53.70
2019-04-03T17:30:49.897Z,54.70
2019-04-03T17:33:33.982Z,53.60
2019-04-03T17:36:03.247Z,53.10
2019-04-03T17:38:40.287Z,52.00
2019-04-03T17:41:12.560Z,52.10
2019-04-03T17:43:43.877Z,52.40
2019-04-03T17:49:24.661Z,55.00
2019-04-03T17:51:54.196Z,55.20
2019-04-03T17:54:24.041Z,55.00
2019-04-03T17:56:52.019Z,55.20
2019-04-03T17:59:25.744Z,55.30
2019-04-03T18:01:55.419Z,54.40
2019-04-03T18:04:27.539Z,54.20
2019-04-03T18:06:57.505Z,54.60
2019-04-03T18:09:26.961Z,54.80
2019-04-03T18:11:57.851Z,54.80
2019-04-03T18:14:26.588Z,55.10
2019-04-03T18:16:55.588Z,54.70
2019-04-03T18:19:36.316Z,54.90
2019-04-03T18:21:53.391Z,54.60
2019-04-03T18:24:23.222Z,54.80
2019-04-03T18:26:51.636Z,55.00
2019-04-03T18:29:20.532Z,55.00
2019-04-03T18:31:48.472Z,54.60
2019-04-03T18:34:19.579Z,55.00
2019-04-03T18:36:46.138Z,53.80
2019-04-03T18:39:14.085Z,54.20
2019-04-03T18:41:41.987Z,54.10
2019-04-03T18:44:21.578Z,54.10
2019-04-03T18:46:43.023Z,53.70
2019-04-03T18:49:11.199Z,54.30
2019-04-03T18:51:42.955Z,53.80
2019-04-03T18:54:11.580Z,53.60
2019-04-03T18:56:41.212Z,53.90
2019-04-03T18:59:09.241Z,54.00
2019-04-03T19:01:38.057Z,53.90
2019-04-03T19:04:08.087Z,54.30
2019-04-03T19:06:36.283Z,55.20
2019-04-03T19:09:09.951Z,55.40
2019-04-03T19:11:36.775Z,54.50
2019-04-03T19:14:06.674Z,54.10
2019-04-03T19:16:43.956Z,54.00
2019-04-03T19:19:08.121Z,53.90
2019-04-03T19:21:35.983Z,54.20
2019-04-03T19:24:05.069Z,53.90
2019-04-03T19:26:33.116Z,54.70
2019-04-03T19:29:01.022Z,55.30
2019-04-03T19:31:29.152Z,55.00
2019-04-03T19:33:57.134Z,55.20
2019-04-03T19:36:26.099Z,55.20
2019-04-03T19:38:54.089Z,55.20
2019-04-03T19:41:22.041Z,55.10
2019-04-03T19:43:51.006Z,55.10
2019-04-03T19:46:19.057Z,54.40
2019-04-03T19:48:48.084Z,54.00
2019-04-03T19:51:17.150Z,54.10
2019-04-03T19:53:58.653Z,54.60
2019-04-03T19:56:17.004Z,55.30
2019-04-03T19:58:46.250Z,55.50
2019-04-03T20:01:14.340Z,55.80
2019-04-03T20:03:44.063Z,56.20
2019-04-03T20:06:12.957Z,57.20
2019-04-03T20:08:40.980Z,56.30
2019-04-03T20:11:08.976Z,56.20
2019-04-03T20:13:39.565Z,56.10
2019-04-03T20:16:07.510Z,55.20
2019-04-03T20:18:37.430Z,55.40
2019-04-03T20:21:05.414Z,55.60
2019-04-03T20:23:33.416Z,55.30
2019-04-03T20:26:04.560Z,55.30
2019-04-03T20:28:32.952Z,56.10
2019-04-03T20:31:00.882Z,56.00
2019-04-03T20:33:29.834Z,57.50
2019-04-03T20:35:58.692Z,57.70
2019-04-03T20:38:28.109Z,57.80
2019-04-03T20:40:56.323Z,58.20
2019-04-03T20:43:24.228Z,58.40
2019-04-03T20:45:52.227Z,58.60
2019-04-03T20:48:21.127Z,57.90
2019-04-03T20:50:52.312Z,58.10
2019-04-03T20:53:21.191Z,56.50
2019-04-03T20:55:49.141Z,56.30
2019-04-03T20:58:19.228Z,57.80
2019-04-03T21:00:49.851Z,57.90
2019-04-03T21:03:17.112Z,58.00
2019-04-03T21:05:48.863Z,57.60
2019-04-03T21:08:17.503Z,56.20
2019-04-03T21:10:46.347Z,56.30
2019-04-03T21:13:15.550Z,56.60
2019-04-03T21:15:45.652Z,56.40
2019-04-03T21:18:13.930Z,56.10
2019-04-03T21:20:42.719Z,55.70
2019-04-03T21:23:11.016Z,55.60
2019-04-03T21:25:40.691Z,55.80
2019-04-03T21:28:10.595Z,55.60
2019-04-03T21:30:38.410Z,55.30
2019-04-03T21:33:06.304Z,55.30
2019-04-03T21:35:35.752Z,55.40
2019-04-03T21:38:04.783Z,56.00
2019-04-03T21:40:33.640Z,56.00
2019-04-03T21:43:03.669Z,56.50
2019-04-03T21:45:38.731Z,56.40
2019-04-03T21:48:07.106Z,56.70
2019-04-03T21:50:36.987Z,56.10
2019-04-03T21:53:05.866Z,56.40
2019-04-03T21:55:34.824Z,55.70
2019-04-03T21:58:03.767Z,55.60
2019-04-03T22:00:49.844Z,54.80
2019-04-03T22:03:19.395Z,55.40
2019-04-03T22:05:47.341Z,55.70
2019-04-03T22:08:15.251Z,55.60
2019-04-03T22:10:44.089Z,54.90
2019-04-03T22:13:11.972Z,55.70
2019-04-03T22:15:39.864Z,56.60
2019-04-03T22:18:07.850Z,55.90
2019-04-03T22:20:35.827Z,56.10
2019-04-03T22:23:04.889Z,54.90
2019-04-03T22:25:33.562Z,55.10
2019-04-03T22:28:01.530Z,55.50
2019-04-03T22:30:29.496Z,55.10
2019-04-03T22:32:57.379Z,54.60
2019-04-03T22:35:27.889Z,53.90
2019-04-03T22:37:55.154Z,53.40
2019-04-03T22:40:23.252Z,54.10
2019-04-03T22:42:54.180Z,54.70
2019-04-03T22:45:22.117Z,54.60
2019-04-03T22:47:50.185Z,54.10
2019-04-03T22:50:19.182Z,53.40
2019-04-03T22:52:59.871Z,52.80
2019-04-03T22:55:27.917Z,52.60
